sensor_id;sensor_type;location;lat;lon;timestamp;temperature;humidity
75782;DHT22;64400;44.762;37.698;2022-12-18T00:01:45;11.71;96.49
75782;DHT22;64400;44.762;37.698;2022-12-18T00:04:36;11.63;96.81
75782;DHT22;64400;44.762;37.698;2022-12-18T00:07:25;11.66;97.51
75782;DHT22;64400;44.762;37.698;2022-12-18T00:10:13;11.77;97.78
75782;DHT22;64400;44.762;37.698;2022-12-18T00:13:01;11.79;97.10
75782;DHT22;64400;44.762;37.698;2022-12-18T00:15:51;11.85;96.23
75782;DHT22;64400;44.762;37.698;2022-12-18T00:18:40;11.90;96.05
75782;DHT22;64400;44.762;37.698;2022-12-18T00:21:11;11.89;95.61
75782;DHT22;64400;44.762;37.698;2022-12-18T00:24:00;12.02;96.29
75782;DHT22;64400;44.762;37.698;2022-12-18T00:26:49;12.15;95.35
75782;DHT22;64400;44.762;37.698;2022-12-18T00:29:39;12.10;94.49
75782;DHT22;64400;44.762;37.698;2022-12-18T00:32:30;12.02;94.78
75782;DHT22;64400;44.762;37.698;2022-12-18T00:35:19;11.99;94.98
75782;DHT22;64400;44.762;37.698;2022-12-18T00:38:09;12.00;95.81
75782;DHT22;64400;44.762;37.698;2022-12-18T00:40:57;12.17;94.94
75782;DHT22;64400;44.762;37.698;2022-12-18T00:43:46;12.16;94.77
75782;DHT22;64400;44.762;37.698;2022-12-18T00:46:34;12.15;94.93
75782;DHT22;64400;44.762;37.698;2022-12-18T00:49:23;12.13;94.48
75782;DHT22;64400;44.762;37.698;2022-12-18T00:52:12;12.08;94.70
75782;DHT22;64400;44.762;37.698;2022-12-18T00:54:44;12.10;94.57
75782;DHT22;64400;44.762;37.698;2022-12-18T00:57:13;12.08;94.66
75782;DHT22;64400;44.762;37.698;2022-12-18T01:00:03;11.94;94.57
75782;DHT22;64400;44.762;37.698;2022-12-18T01:02:52;11.89;95.09
75782;DHT22;64400;44.762;37.698;2022-12-18T01:05:43;11.91;94.90
75782;DHT22;64400;44.762;37.698;2022-12-18T01:08:31;11.90;95.04
75782;DHT22;64400;44.762;37.698;2022-12-18T01:11:22;11.92;95.02
75782;DHT22;64400;44.762;37.698;2022-12-18T01:14:10;11.98;94.47
75782;DHT22;64400;44.762;37.698;2022-12-18T01:16:59;12.19;93.91
75782;DHT22;64400;44.762;37.698;2022-12-18T01:19:53;12.37;92.97
75782;DHT22;64400;44.762;37.698;2022-12-18T01:22:41;12.43;92.69
75782;DHT22;64400;44.762;37.698;2022-12-18T01:25:13;12.47;92.69
75782;DHT22;64400;44.762;37.698;2022-12-18T01:28:02;12.55;92.50
75782;DHT22;64400;44.762;37.698;2022-12-18T01:30:51;12.51;92.54
75782;DHT22;64400;44.762;37.698;2022-12-18T01:33:40;12.50;92.49
75782;DHT22;64400;44.762;37.698;2022-12-18T01:36:31;12.43;92.46
75782;DHT22;64400;44.762;37.698;2022-12-18T01:39:20;12.35;92.72
75782;DHT22;64400;44.762;37.698;2022-12-18T01:42:13;12.32;92.98
75782;DHT22;64400;44.762;37.698;2022-12-18T01:50:38;12.42;93.19
75782;DHT22;64400;44.762;37.698;2022-12-18T01:53:28;12.41;92.92
75782;DHT22;64400;44.762;37.698;2022-12-18T01:56:18;12.34;93.14
75782;DHT22;64400;44.762;37.698;2022-12-18T01:59:10;12.33;93.19
75782;DHT22;64400;44.762;37.698;2022-12-18T02:01:45;12.26;93.49
75782;DHT22;64400;44.762;37.698;2022-12-18T02:04:34;12.11;93.82
75782;DHT22;64400;44.762;37.698;2022-12-18T02:07:53;12.01;93.93
75782;DHT22;64400;44.762;37.698;2022-12-18T02:19:58;11.79;94.14
75782;DHT22;64400;44.762;37.698;2022-12-18T02:26:48;11.58;94.27
75782;DHT22;64400;44.762;37.698;2022-12-18T02:29:10;11.48;95.66
75782;DHT22;64400;44.762;37.698;2022-12-18T02:32:02;11.46;95.56
75782;DHT22;64400;44.762;37.698;2022-12-18T02:34:54;11.43;96.00
75782;DHT22;64400;44.762;37.698;2022-12-18T02:37:46;11.44;95.56
75782;DHT22;64400;44.762;37.698;2022-12-18T02:40:37;11.28;96.19
75782;DHT22;64400;44.762;37.698;2022-12-18T02:43:26;11.22;96.68
75782;DHT22;64400;44.762;37.698;2022-12-18T02:46:37;11.19;97.18
75782;DHT22;64400;44.762;37.698;2022-12-18T02:49:33;11.11;97.20
75782;DHT22;64400;44.762;37.698;2022-12-18T02:55:43;11.13;97.20
75782;DHT22;64400;44.762;37.698;2022-12-18T02:59:06;11.14;96.70
75782;DHT22;64400;44.762;37.698;2022-12-18T03:04:33;11.04;96.69
75782;DHT22;64400;44.762;37.698;2022-12-18T03:07:37;11.16;97.93
75782;DHT22;64400;44.762;37.698;2022-12-18T03:10:32;11.28;97.99
75782;DHT22;64400;44.762;37.698;2022-12-18T03:13:28;11.62;97.44
75782;DHT22;64400;44.762;37.698;2022-12-18T03:16:23;11.76;95.41
75782;DHT22;64400;44.762;37.698;2022-12-18T03:19:16;11.91;95.03
75782;DHT22;64400;44.762;37.698;2022-12-18T03:22:07;11.92;94.88
75782;DHT22;64400;44.762;37.698;2022-12-18T03:24:57;11.97;94.79
75782;DHT22;64400;44.762;37.698;2022-12-18T03:27:33;12.06;94.67
75782;DHT22;64400;44.762;37.698;2022-12-18T03:30:24;11.97;94.75
75782;DHT22;64400;44.762;37.698;2022-12-18T03:33:34;11.91;95.30
75782;DHT22;64400;44.762;37.698;2022-12-18T03:36:34;11.93;95.33
75782;DHT22;64400;44.762;37.698;2022-12-18T03:39:24;11.82;95.94
75782;DHT22;64400;44.762;37.698;2022-12-18T03:42:27;11.73;95.87
75782;DHT22;64400;44.762;37.698;2022-12-18T03:45:12;11.68;96.43
75782;DHT22;64400;44.762;37.698;2022-12-18T03:48:07;11.63;96.49
75782;DHT22;64400;44.762;37.698;2022-12-18T03:51:09;11.59;96.99
75782;DHT22;64400;44.762;37.698;2022-12-18T03:54:02;11.66;97.62
75782;DHT22;64400;44.762;37.698;2022-12-18T03:57:11;11.73;97.14
75782;DHT22;64400;44.762;37.698;2022-12-18T04:00:11;11.94;96.86
75782;DHT22;64400;44.762;37.698;2022-12-18T04:03:07;11.86;96.86
75782;DHT22;64400;44.762;37.698;2022-12-18T04:05:59;11.88;97.25
75782;DHT22;64400;44.762;37.698;2022-12-18T04:08:48;11.89;97.33
75782;DHT22;64400;44.762;37.698;2022-12-18T04:11:21;11.88;97.25
75782;DHT22;64400;44.762;37.698;2022-12-18T04:14:11;11.83;97.20
75782;DHT22;64400;44.762;37.698;2022-12-18T04:17:00;11.79;97.90
75782;DHT22;64400;44.762;37.698;2022-12-18T04:19:42;11.81;98.43
75782;DHT22;64400;44.762;37.698;2022-12-18T04:22:31;11.86;98.58
75782;DHT22;64400;44.762;37.698;2022-12-18T04:25:11;12.01;98.35
75782;DHT22;64400;44.762;37.698;2022-12-18T04:28:10;12.04;98.29
75782;DHT22;64400;44.762;37.698;2022-12-18T04:30:59;12.04;97.89
75782;DHT22;64400;44.762;37.698;2022-12-18T04:33:48;12.01;98.69
75782;DHT22;64400;44.762;37.698;2022-12-18T04:36:42;12.07;98.71
75782;DHT22;64400;44.762;37.698;2022-12-18T04:39:32;12.04;98.76
75782;DHT22;64400;44.762;37.698;2022-12-18T04:42:29;12.00;99.03
75782;DHT22;64400;44.762;37.698;2022-12-18T04:45:18;12.02;98.87
75782;DHT22;64400;44.762;37.698;2022-12-18T04:48:07;12.05;99.14
75782;DHT22;64400;44.762;37.698;2022-12-18T04:50:55;12.12;99.06
75782;DHT22;64400;44.762;37.698;2022-12-18T04:53:44;12.12;98.95
75782;DHT22;64400;44.762;37.698;2022-12-18T04:56:24;12.17;98.90
75782;DHT22;64400;44.762;37.698;2022-12-18T04:59:13;12.22;98.57
75782;DHT22;64400;44.762;37.698;2022-12-18T05:01:45;12.20;98.46
75782;DHT22;64400;44.762;37.698;2022-12-18T05:04:34;12.18;98.77
75782;DHT22;64400;44.762;37.698;2022-12-18T05:07:22;12.22;98.77
75782;DHT22;64400;44.762;37.698;2022-12-18T05:10:08;12.17;99.11
75782;DHT22;64400;44.762;37.698;2022-12-18T05:12:56;12.22;98.93
75782;DHT22;64400;44.762;37.698;2022-12-18T05:15:51;12.26;98.62
75782;DHT22;64400;44.762;37.698;2022-12-18T05:18:28;12.12;98.10
75782;DHT22;64400;44.762;37.698;2022-12-18T05:21:16;12.13;98.53
75782;DHT22;64400;44.762;37.698;2022-12-18T05:24:05;12.20;98.16
75782;DHT22;64400;44.762;37.698;2022-12-18T05:26:53;12.23;98.55
75782;DHT22;64400;44.762;37.698;2022-12-18T05:29:42;12.32;98.84
75782;DHT22;64400;44.762;37.698;2022-12-18T05:32:30;12.47;98.48
75782;DHT22;64400;44.762;37.698;2022-12-18T05:35:19;12.57;97.71
75782;DHT22;64400;44.762;37.698;2022-12-18T05:38:07;12.71;97.55
75782;DHT22;64400;44.762;37.698;2022-12-18T05:40:56;12.82;96.78
75782;DHT22;64400;44.762;37.698;2022-12-18T05:43:45;12.90;96.16
75782;DHT22;64400;44.762;37.698;2022-12-18T05:46:34;12.97;95.87
75782;DHT22;64400;44.762;37.698;2022-12-18T05:49:22;13.04;95.38
75782;DHT22;64400;44.762;37.698;2022-12-18T05:52:11;13.11;94.80
75782;DHT22;64400;44.762;37.698;2022-12-18T05:54:59;13.12;94.46
75782;DHT22;64400;44.762;37.698;2022-12-18T05:57:48;13.15;94.36
75782;DHT22;64400;44.762;37.698;2022-12-18T06:00:38;13.17;94.28
75782;DHT22;64400;44.762;37.698;2022-12-18T06:03:29;13.24;94.76
75782;DHT22;64400;44.762;37.698;2022-12-18T06:06:19;13.33;94.19
75782;DHT22;64400;44.762;37.698;2022-12-18T06:08:50;13.39;95.01
75782;DHT22;64400;44.762;37.698;2022-12-18T06:11:39;13.63;94.20
75782;DHT22;64400;44.762;37.698;2022-12-18T06:14:27;13.79;94.05
75782;DHT22;64400;44.762;37.698;2022-12-18T06:17:16;13.91;93.45
75782;DHT22;64400;44.762;37.698;2022-12-18T06:20:05;13.91;93.98
75782;DHT22;64400;44.762;37.698;2022-12-18T06:22:57;13.97;93.54
75782;DHT22;64400;44.762;37.698;2022-12-18T06:25:28;14.01;93.23
75782;DHT22;64400;44.762;37.698;2022-12-18T06:28:16;14.12;93.22
75782;DHT22;64400;44.762;37.698;2022-12-18T06:30:48;14.21;93.40
75782;DHT22;64400;44.762;37.698;2022-12-18T06:33:36;14.30;92.81
75782;DHT22;64400;44.762;37.698;2022-12-18T06:36:17;14.44;92.75
75782;DHT22;64400;44.762;37.698;2022-12-18T06:39:06;14.54;92.56
75782;DHT22;64400;44.762;37.698;2022-12-18T06:41:54;14.62;92.42
75782;DHT22;64400;44.762;37.698;2022-12-18T06:44:43;14.62;91.56
75782;DHT22;64400;44.762;37.698;2022-12-18T06:47:31;14.64;91.96
75782;DHT22;64400;44.762;37.698;2022-12-18T06:50:20;14.62;92.34
75782;DHT22;64400;44.762;37.698;2022-12-18T06:53:08;14.82;91.65
75782;DHT22;64400;44.762;37.698;2022-12-18T06:55:38;14.88;91.36
75782;DHT22;64400;44.762;37.698;2022-12-18T06:58:27;15.12;90.73
75782;DHT22;64400;44.762;37.698;2022-12-18T07:01:16;15.21;90.70
75782;DHT22;64400;44.762;37.698;2022-12-18T07:04:05;15.31;90.25
75782;DHT22;64400;44.762;37.698;2022-12-18T07:06:53;15.25;90.51
75782;DHT22;64400;44.762;37.698;2022-12-18T07:09:33;15.08;91.62
75782;DHT22;64400;44.762;37.698;2022-12-18T07:12:22;14.94;92.41
75782;DHT22;64400;44.762;37.698;2022-12-18T07:15:10;14.93;93.21
75782;DHT22;64400;44.762;37.698;2022-12-18T07:17:39;14.96;92.86
75782;DHT22;64400;44.762;37.698;2022-12-18T07:20:28;14.85;93.08
75782;DHT22;64400;44.762;37.698;2022-12-18T07:22:57;14.81;93.75
75782;DHT22;64400;44.762;37.698;2022-12-18T07:25:46;14.73;94.34
75782;DHT22;64400;44.762;37.698;2022-12-18T07:28:36;14.57;95.13
75782;DHT22;64400;44.762;37.698;2022-12-18T07:31:26;14.55;95.43
75782;DHT22;64400;44.762;37.698;2022-12-18T07:34:14;14.53;95.75
75782;DHT22;64400;44.762;37.698;2022-12-18T07:37:03;14.47;96.04
75782;DHT22;64400;44.762;37.698;2022-12-18T07:39:52;14.49;96.28
75782;DHT22;64400;44.762;37.698;2022-12-18T07:42:41;14.52;96.20
75782;DHT22;64400;44.762;37.698;2022-12-18T07:45:29;14.49;96.55
75782;DHT22;64400;44.762;37.698;2022-12-18T07:48:17;14.42;96.57
75782;DHT22;64400;44.762;37.698;2022-12-18T07:51:07;14.45;96.60
75782;DHT22;64400;44.762;37.698;2022-12-18T07:53:56;14.48;96.93
75782;DHT22;64400;44.762;37.698;2022-12-18T07:56:45;14.53;96.47
75782;DHT22;64400;44.762;37.698;2022-12-18T07:59:33;14.47;96.65
75782;DHT22;64400;44.762;37.698;2022-12-18T08:02:22;14.50;97.01
75782;DHT22;64400;44.762;37.698;2022-12-18T08:05:10;14.40;96.94
75782;DHT22;64400;44.762;37.698;2022-12-18T08:07:50;14.41;97.07
75782;DHT22;64400;44.762;37.698;2022-12-18T08:10:38;14.36;97.56
75782;DHT22;64400;44.762;37.698;2022-12-18T08:13:27;14.37;97.52
75782;DHT22;64400;44.762;37.698;2022-12-18T08:16:18;14.37;97.89
75782;DHT22;64400;44.762;37.698;2022-12-18T08:19:07;14.38;97.90
75782;DHT22;64400;44.762;37.698;2022-12-18T08:21:55;14.37;98.10
75782;DHT22;64400;44.762;37.698;2022-12-18T08:24:26;14.38;98.21
75782;DHT22;64400;44.762;37.698;2022-12-18T08:27:14;14.44;98.20
75782;DHT22;64400;44.762;37.698;2022-12-18T08:30:04;14.43;97.83
75782;DHT22;64400;44.762;37.698;2022-12-18T08:32:53;14.45;98.08
75782;DHT22;64400;44.762;37.698;2022-12-18T08:35:42;14.55;97.90
75782;DHT22;64400;44.762;37.698;2022-12-18T08:38:31;14.53;97.41
75782;DHT22;64400;44.762;37.698;2022-12-18T08:41:21;14.52;97.53
75782;DHT22;64400;44.762;37.698;2022-12-18T08:44:10;14.47;97.92
75782;DHT22;64400;44.762;37.698;2022-12-18T08:47:17;14.38;98.23
75782;DHT22;64400;44.762;37.698;2022-12-18T08:50:05;14.29;98.72
75782;DHT22;64400;44.762;37.698;2022-12-18T08:52:54;14.25;99.13
75782;DHT22;64400;44.762;37.698;2022-12-18T08:55:42;14.12;99.55
75782;DHT22;64400;44.762;37.698;2022-12-18T08:58:31;14.06;100.16
75782;DHT22;64400;44.762;37.698;2022-12-18T09:01:21;14.06;100.24
75782;DHT22;64400;44.762;37.698;2022-12-18T09:04:12;14.06;100.25
75782;DHT22;64400;44.762;37.698;2022-12-18T09:07:05;14.05;100.39
75782;DHT22;64400;44.762;37.698;2022-12-18T09:09:53;14.08;100.46
75782;DHT22;64400;44.762;37.698;2022-12-18T09:12:41;14.12;100.24
75782;DHT22;64400;44.762;37.698;2022-12-18T09:15:30;14.13;100.37
75782;DHT22;64400;44.762;37.698;2022-12-18T09:17:59;14.14;100.25
75782;DHT22;64400;44.762;37.698;2022-12-18T09:20:48;14.23;100.03
75782;DHT22;64400;44.762;37.698;2022-12-18T09:23:38;14.26;99.71
75782;DHT22;64400;44.762;37.698;2022-12-18T09:26:27;14.25;99.84
75782;DHT22;64400;44.762;37.698;2022-12-18T09:29:15;14.35;99.48
75782;DHT22;64400;44.762;37.698;2022-12-18T09:32:04;14.49;98.84
75782;DHT22;64400;44.762;37.698;2022-12-18T09:34:33;14.48;98.59
75782;DHT22;64400;44.762;37.698;2022-12-18T09:37:24;14.44;98.67
75782;DHT22;64400;44.762;37.698;2022-12-18T09:40:18;14.39;99.01
75782;DHT22;64400;44.762;37.698;2022-12-18T09:43:14;14.33;99.36
75782;DHT22;64400;44.762;37.698;2022-12-18T09:45:56;14.32;99.48
75782;DHT22;64400;44.762;37.698;2022-12-18T09:48:49;14.24;99.71
75782;DHT22;64400;44.762;37.698;2022-12-18T09:51:55;14.21;99.93
75782;DHT22;64400;44.762;37.698;2022-12-18T09:54:38;14.11;99.95
75782;DHT22;64400;44.762;37.698;2022-12-18T09:57:18;14.13;100.11
75782;DHT22;64400;44.762;37.698;2022-12-18T10:00:18;14.12;100.22
75782;DHT22;64400;44.762;37.698;2022-12-18T10:03:12;14.10;100.37
75782;DHT22;64400;44.762;37.698;2022-12-18T10:06:14;14.11;100.34
75782;DHT22;64400;44.762;37.698;2022-12-18T10:09:30;14.09;100.52
75782;DHT22;64400;44.762;37.698;2022-12-18T10:21:34;14.09;100.81
75782;DHT22;64400;44.762;37.698;2022-12-18T10:27:24;14.05;101.22
75782;DHT22;64400;44.762;37.698;2022-12-18T10:30:16;14.05;101.28
75782;DHT22;64400;44.762;37.698;2022-12-18T10:33:08;14.06;101.15
75782;DHT22;64400;44.762;37.698;2022-12-18T10:35:58;14.06;101.18
75782;DHT22;64400;44.762;37.698;2022-12-18T10:38:33;14.03;101.24
75782;DHT22;64400;44.762;37.698;2022-12-18T10:41:26;14.00;101.51
75782;DHT22;64400;44.762;37.698;2022-12-18T10:44:22;14.00;101.55
75782;DHT22;64400;44.762;37.698;2022-12-18T10:47:18;13.96;101.81
75782;DHT22;64400;44.762;37.698;2022-12-18T10:49:52;13.93;102.15
75782;DHT22;64400;44.762;37.698;2022-12-18T10:52:43;13.93;102.07
75782;DHT22;64400;44.762;37.698;2022-12-18T10:55:34;13.93;102.27
75782;DHT22;64400;44.762;37.698;2022-12-18T10:58:32;13.92;102.26
75782;DHT22;64400;44.762;37.698;2022-12-18T11:01:21;13.95;102.35
75782;DHT22;64400;44.762;37.698;2022-12-18T11:04:16;13.98;102.13
75782;DHT22;64400;44.762;37.698;2022-12-18T11:07:12;13.96;102.66
75782;DHT22;64400;44.762;37.698;2022-12-18T11:10:01;14.03;102.06
75782;DHT22;64400;44.762;37.698;2022-12-18T11:12:34;14.07;102.07
75782;DHT22;64400;44.762;37.698;2022-12-18T11:15:27;14.00;101.20
75782;DHT22;64400;44.762;37.698;2022-12-18T11:21:15;13.65;99.94
75782;DHT22;64400;44.762;37.698;2022-12-18T11:23:54;13.61;100.20
75782;DHT22;64400;44.762;37.698;2022-12-18T11:26:42;13.50;100.12
75782;DHT22;64400;44.762;37.698;2022-12-18T11:29:38;13.46;100.41
75782;DHT22;64400;44.762;37.698;2022-12-18T11:32:43;13.37;100.64
75782;DHT22;64400;44.762;37.698;2022-12-18T11:35:38;13.25;100.64
75782;DHT22;64400;44.762;37.698;2022-12-18T11:38:37;13.23;100.70
75782;DHT22;64400;44.762;37.698;2022-12-18T11:41:38;13.18;100.86
75782;DHT22;64400;44.762;37.698;2022-12-18T11:45:18;13.00;101.41
75782;DHT22;64400;44.762;37.698;2022-12-18T11:48:16;12.91;101.51
75782;DHT22;64400;44.762;37.698;2022-12-18T11:51:11;12.84;101.71
75782;DHT22;64400;44.762;37.698;2022-12-18T11:53:55;12.79;101.28
75782;DHT22;64400;44.762;37.698;2022-12-18T11:56:36;12.72;101.28
75782;DHT22;64400;44.762;37.698;2022-12-18T12:21:40;12.14;100.54
75782;DHT22;64400;44.762;37.698;2022-12-18T12:24:48;12.11;100.31
75782;DHT22;64400;44.762;37.698;2022-12-18T12:27:58;12.06;100.83
75782;DHT22;64400;44.762;37.698;2022-12-18T12:34:18;11.98;100.52
75782;DHT22;64400;44.762;37.698;2022-12-18T12:37:19;11.97;100.80
75782;DHT22;64400;44.762;37.698;2022-12-18T12:39:59;11.97;100.58
75782;DHT22;64400;44.762;37.698;2022-12-18T12:43:12;11.83;100.71
75782;DHT22;64400;44.762;37.698;2022-12-18T12:46:12;11.75;100.78
75782;DHT22;64400;44.762;37.698;2022-12-18T12:49:03;11.68;100.87
75782;DHT22;64400;44.762;37.698;2022-12-18T12:52:03;11.66;101.04
75782;DHT22;64400;44.762;37.698;2022-12-18T12:54:54;11.57;101.05
75782;DHT22;64400;44.762;37.698;2022-12-18T13:04:23;11.24;101.79
75782;DHT22;64400;44.762;37.698;2022-12-18T13:13:03;10.82;102.83
75782;DHT22;64400;44.762;37.698;2022-12-18T13:16:08;10.71;103.16
75782;DHT22;64400;44.762;37.698;2022-12-18T13:18:58;10.60;102.97
75782;DHT22;64400;44.762;37.698;2022-12-18T13:21:53;10.51;102.92
75782;DHT22;64400;44.762;37.698;2022-12-18T13:24:27;10.43;103.07
75782;DHT22;64400;44.762;37.698;2022-12-18T13:36:29;10.11;103.12
75782;DHT22;64400;44.762;37.698;2022-12-18T13:44:56;9.88;103.09
75782;DHT22;64400;44.762;37.698;2022-12-18T13:47:44;9.77;102.80
75782;DHT22;64400;44.762;37.698;2022-12-18T13:50:33;9.75;102.93
75782;DHT22;64400;44.762;37.698;2022-12-18T13:53:26;9.69;102.70
75782;DHT22;64400;44.762;37.698;2022-12-18T13:56:17;9.57;102.04
75782;DHT22;64400;44.762;37.698;2022-12-18T14:02:16;9.18;102.76
75782;DHT22;64400;44.762;37.698;2022-12-18T14:05:20;9.12;102.76
75782;DHT22;64400;44.762;37.698;2022-12-18T14:08:12;9.05;102.42
75782;DHT22;64400;44.762;37.698;2022-12-18T14:11:03;9.01;102.63
75782;DHT22;64400;44.762;37.698;2022-12-18T14:13:54;9.04;102.72
75782;DHT22;64400;44.762;37.698;2022-12-18T14:16:42;9.03;102.15
75782;DHT22;64400;44.762;37.698;2022-12-18T14:19:34;8.97;101.74
75782;DHT22;64400;44.762;37.698;2022-12-18T14:22:25;8.93;101.48
75782;DHT22;64400;44.762;37.698;2022-12-18T14:25:21;8.88;101.27
75782;DHT22;64400;44.762;37.698;2022-12-18T14:28:14;8.80;101.36
75782;DHT22;64400;44.762;37.698;2022-12-18T14:31:03;8.72;100.95
75782;DHT22;64400;44.762;37.698;2022-12-18T14:33:52;8.68;100.61
75782;DHT22;64400;44.762;37.698;2022-12-18T14:36:41;8.57;101.33
75782;DHT22;64400;44.762;37.698;2022-12-18T14:39:39;8.53;101.12
75782;DHT22;64400;44.762;37.698;2022-12-18T14:42:32;8.50;101.93
75782;DHT22;64400;44.762;37.698;2022-12-18T14:45:38;8.52;101.86
75782;DHT22;64400;44.762;37.698;2022-12-18T14:48:41;8.55;101.48
75782;DHT22;64400;44.762;37.698;2022-12-18T14:51:32;8.52;101.30
75782;DHT22;64400;44.762;37.698;2022-12-18T14:54:25;8.49;101.12
75782;DHT22;64400;44.762;37.698;2022-12-18T14:57:22;8.38;101.25
75782;DHT22;64400;44.762;37.698;2022-12-18T15:00:20;8.32;101.52
75782;DHT22;64400;44.762;37.698;2022-12-18T15:03:09;8.18;101.46
75782;DHT22;64400;44.762;37.698;2022-12-18T15:05:37;8.16;101.86
75782;DHT22;64400;44.762;37.698;2022-12-18T15:08:36;8.16;102.31
75782;DHT22;64400;44.762;37.698;2022-12-18T15:11:29;8.09;102.05
75782;DHT22;64400;44.762;37.698;2022-12-18T15:14:30;7.96;101.72
75782;DHT22;64400;44.762;37.698;2022-12-18T15:17:21;7.92;101.88
75782;DHT22;64400;44.762;37.698;2022-12-18T15:20:11;7.88;101.89
75782;DHT22;64400;44.762;37.698;2022-12-18T15:23:00;7.87;101.71
75782;DHT22;64400;44.762;37.698;2022-12-18T15:25:55;7.87;101.66
75782;DHT22;64400;44.762;37.698;2022-12-18T15:28:57;7.88;101.73
75782;DHT22;64400;44.762;37.698;2022-12-18T15:32:00;7.86;101.10
75782;DHT22;64400;44.762;37.698;2022-12-18T15:34:49;7.79;101.29
75782;DHT22;64400;44.762;37.698;2022-12-18T15:37:19;7.77;102.03
75782;DHT22;64400;44.762;37.698;2022-12-18T15:40:18;7.75;101.74
75782;DHT22;64400;44.762;37.698;2022-12-18T15:42:58;7.62;101.79
75782;DHT22;64400;44.762;37.698;2022-12-18T15:46:09;7.59;101.80
75782;DHT22;64400;44.762;37.698;2022-12-18T15:48:59;7.40;102.50
75782;DHT22;64400;44.762;37.698;2022-12-18T15:51:53;7.38;102.29
75782;DHT22;64400;44.762;37.698;2022-12-18T15:54:42;7.32;102.47
75782;DHT22;64400;44.762;37.698;2022-12-18T15:57:48;7.24;101.88
75782;DHT22;64400;44.762;37.698;2022-12-18T16:00:39;7.22;101.83
75782;DHT22;64400;44.762;37.698;2022-12-18T16:03:29;7.12;102.51
75782;DHT22;64400;44.762;37.698;2022-12-18T16:06:18;7.07;102.38
75782;DHT22;64400;44.762;37.698;2022-12-18T16:09:06;7.08;102.27
75782;DHT22;64400;44.762;37.698;2022-12-18T16:11:59;7.10;100.96
75782;DHT22;64400;44.762;37.698;2022-12-18T16:14:31;7.15;101.67
75782;DHT22;64400;44.762;37.698;2022-12-18T16:17:20;7.04;101.50
75782;DHT22;64400;44.762;37.698;2022-12-18T16:20:16;6.95;102.28
75782;DHT22;64400;44.762;37.698;2022-12-18T16:23:05;6.91;101.73
75782;DHT22;64400;44.762;37.698;2022-12-18T16:25:51;6.95;101.75
75782;DHT22;64400;44.762;37.698;2022-12-18T16:28:39;6.88;101.62
75782;DHT22;64400;44.762;37.698;2022-12-18T16:31:30;6.86;101.64
75782;DHT22;64400;44.762;37.698;2022-12-18T16:34:32;6.81;101.43
75782;DHT22;64400;44.762;37.698;2022-12-18T16:37:06;6.80;101.25
75782;DHT22;64400;44.762;37.698;2022-12-18T16:39:37;6.81;101.30
75782;DHT22;64400;44.762;37.698;2022-12-18T16:42:26;6.72;100.83
75782;DHT22;64400;44.762;37.698;2022-12-18T16:45:17;6.66;101.19
75782;DHT22;64400;44.762;37.698;2022-12-18T16:48:06;6.64;101.23
75782;DHT22;64400;44.762;37.698;2022-12-18T16:51:03;6.49;100.78
75782;DHT22;64400;44.762;37.698;2022-12-18T16:53:55;6.37;101.56
75782;DHT22;64400;44.762;37.698;2022-12-18T16:56:44;6.35;101.76
75782;DHT22;64400;44.762;37.698;2022-12-18T16:59:15;6.36;101.63
75782;DHT22;64400;44.762;37.698;2022-12-18T17:02:04;6.42;101.54
75782;DHT22;64400;44.762;37.698;2022-12-18T17:04:54;6.43;100.93
75782;DHT22;64400;44.762;37.698;2022-12-18T17:07:46;6.48;101.48
75782;DHT22;64400;44.762;37.698;2022-12-18T17:10:35;6.48;101.40
75782;DHT22;64400;44.762;37.698;2022-12-18T17:13:26;6.50;101.27
75782;DHT22;64400;44.762;37.698;2022-12-18T17:16:15;6.48;101.08
75782;DHT22;64400;44.762;37.698;2022-12-18T17:18:46;6.50;101.44
75782;DHT22;64400;44.762;37.698;2022-12-18T17:21:35;6.50;101.33
75782;DHT22;64400;44.762;37.698;2022-12-18T17:24:24;6.46;101.51
75782;DHT22;64400;44.762;37.698;2022-12-18T17:27:14;6.52;101.53
75782;DHT22;64400;44.762;37.698;2022-12-18T17:30:03;6.54;101.37
75782;DHT22;64400;44.762;37.698;2022-12-18T17:32:52;6.60;101.25
75782;DHT22;64400;44.762;37.698;2022-12-18T17:35:44;6.63;100.49
75782;DHT22;64400;44.762;37.698;2022-12-18T17:38:25;6.65;100.16
75782;DHT22;64400;44.762;37.698;2022-12-18T17:41:14;6.66;99.35
75782;DHT22;64400;44.762;37.698;2022-12-18T17:44:04;6.68;98.84
75782;DHT22;64400;44.762;37.698;2022-12-18T17:46:53;6.69;98.68
75782;DHT22;64400;44.762;37.698;2022-12-18T17:49:42;6.65;97.94
75782;DHT22;64400;44.762;37.698;2022-12-18T17:52:30;6.57;97.97
75782;DHT22;64400;44.762;37.698;2022-12-18T17:55:19;6.55;98.35
75782;DHT22;64400;44.762;37.698;2022-12-18T17:58:08;6.52;98.30
75782;DHT22;64400;44.762;37.698;2022-12-18T18:00:38;6.53;98.04
75782;DHT22;64400;44.762;37.698;2022-12-18T18:03:07;6.50;98.16
75782;DHT22;64400;44.762;37.698;2022-12-18T18:05:57;6.44;97.40
75782;DHT22;64400;44.762;37.698;2022-12-18T18:08:27;6.43;97.52
75782;DHT22;64400;44.762;37.698;2022-12-18T18:11:30;6.43;97.55
75782;DHT22;64400;44.762;37.698;2022-12-18T18:14:37;6.48;98.01
75782;DHT22;64400;44.762;37.698;2022-12-18T18:17:25;6.49;97.52
75782;DHT22;64400;44.762;37.698;2022-12-18T18:20:20;6.48;97.54
75782;DHT22;64400;44.762;37.698;2022-12-18T18:23:09;6.52;97.28
75782;DHT22;64400;44.762;37.698;2022-12-18T18:26:05;6.48;97.30
75782;DHT22;64400;44.762;37.698;2022-12-18T18:28:56;6.46;96.80
75782;DHT22;64400;44.762;37.698;2022-12-18T18:31:45;6.42;96.36
75782;DHT22;64400;44.762;37.698;2022-12-18T18:34:33;6.42;96.78
75782;DHT22;64400;44.762;37.698;2022-12-18T18:37:24;6.43;96.19
75782;DHT22;64400;44.762;37.698;2022-12-18T18:40:13;6.41;96.30
75782;DHT22;64400;44.762;37.698;2022-12-18T18:43:06;6.39;96.27
75782;DHT22;64400;44.762;37.698;2022-12-18T18:45:58;6.40;96.56
75782;DHT22;64400;44.762;37.698;2022-12-18T18:48:50;6.34;96.39
75782;DHT22;64400;44.762;37.698;2022-12-18T18:51:21;6.37;97.36
75782;DHT22;64400;44.762;37.698;2022-12-18T18:54:04;6.35;97.20
75782;DHT22;64400;44.762;37.698;2022-12-18T18:56:53;6.38;97.21
75782;DHT22;64400;44.762;37.698;2022-12-18T18:59:41;6.31;96.09
75782;DHT22;64400;44.762;37.698;2022-12-18T19:02:16;6.28;96.35
75782;DHT22;64400;44.762;37.698;2022-12-18T19:04:44;6.21;95.68
75782;DHT22;64400;44.762;37.698;2022-12-18T19:07:33;6.16;96.39
75782;DHT22;64400;44.762;37.698;2022-12-18T19:10:21;6.09;96.29